Peotone Weather

Nearby METAR Reports

 

KIGQ - Lansing, Illinois, USA
Distance from station: NE 19mi, 30km
Updated: Sun, 26-Mar-2017 12:15am CDT
Light rain, Overcast
Light rain, Overcast
 Wind from ESE
Wind: ESE 9 mph , 15 km/h
Temperature: 52°F , 11°C
Dew Point: 52°F , 11°C
Humidity: 100%
Barometer: 29.94 inHg , 1013.9 hPa
Summary: Light rain
Clouds: Overcast
Visibility: 7 miles , 11 km
Cloud details: Partly cloudy 5500 ft
Mostly cloudy 9000 ft
Overcast 11000 ft
2017/03/26 05:15 KIGQ 260515Z AUTO 11008KT 7SM -RA SCT055 BKN090 OVC110 11/11 A2994 RMK AO2 T01080108
KIKK - Kankakee, Illinois, USA
Distance from station: S 19mi, 30km
Updated: Sat, 25-Mar-2017 11:55pm CDT
Overcast
Overcast
 Wind from ESE
Wind: ESE 6 mph , 9 km/h
Temperature: 55°F , 13°C
Dew Point: 55°F , 13°C
Humidity: 100%
Barometer: 29.92 inHg , 1013.2 hPa
Clouds: Overcast
Visibility: 7 miles , 11 km
Cloud details: Partly cloudy 3800 ft
Overcast 5000 ft
2017/03/26 04:55 KIKK 260455Z AUTO 11005KT 7SM SCT038 OVC050 13/13 A2992 RMK AO2 P0001 T01290125
 
KSJC - Joliet, Illinois, USA
Distance from station: WNW 24mi, 38km
Updated: Sat, 25-Mar-2017 11:53pm CDT
Partly cloudy
Partly cloudy
 Wind from NW
Wind: NW 9 mph , 15 km/h
Temperature: 54°F , 12°C
Dew Point: 46°F , 8°C
Humidity: 77%
Barometer: 30.15 inHg , 1021 hPa
Clouds: Partly cloudy
Visibility: 10 miles , 16 km
Cloud details: Few Clouds 4200 ft
Partly cloudy 20000 ft
2017/03/26 04:53 KSJC 260453Z 31008KT 10SM FEW042 SCT200 12/08 A3015 RMK AO2 SLP209 T01220078 $
KLOT - Romeoville, Illinois, USA
Distance from station: NW 26mi, 41km
Updated: Sat, 25-Mar-2017 11:55pm CDT
Mist, Overcast
Mist, Overcast
 Wind from E
Wind: E 10 mph , 17 km/h
Temperature: 50°F , 10°C
Wind Chill: 46°F , 8°C
Dew Point: 50°F , 10°C
Humidity: 100%
Barometer: 29.92 inHg , 1013.2 hPa
Summary: Mist
Clouds: Overcast
Visibility: 3 miles , 5 km
Cloud details: Partly cloudy 600 ft
Partly cloudy 4300 ft
Overcast 8500 ft
2017/03/26 04:55 KLOT 260455Z AUTO 09009KT 3SM BR SCT006 SCT043 OVC085 10/10 A2992 RMK AO2 T00960096
 
KMDW - Midway Airport Chicago, Illinois, USA
Distance from station: N 31mi, 50km
Updated: Sat, 25-Mar-2017 11:53pm CDT
Mist, Overcast
Mist, Overcast
 Wind from N
Wind: N 10 mph , 17 km/h
Temperature: 48°F , 9°C
Wind Chill: 44°F , 7°C
Dew Point: 46°F , 8°C
Humidity: 94%
Barometer: 29.94 inHg , 1013.9 hPa
Summary: Mist
Clouds: Overcast
Visibility: 3 miles , 5 km
Cloud details: Few Clouds 3700 ft
Mostly cloudy 7000 ft
Overcast 9000 ft
2017/03/26 04:53 KMDW 260453Z 01009KT 3SM BR FEW037 BKN070 OVC090 09/08 A2994 RMK AO2 RAB29E49 SLP141 P0002 T00940083
KC09 - Morris, Illinois, USA
Distance from station: W 34mi, 54km
Updated: Sun, 26-Mar-2017 12:15am CDT
Light rain, Overcast
Light rain, Overcast
 Wind from E
Wind: E 9 mph , 15 km/h
Temperature: 54°F , 12°C
Dew Point: 52°F , 11°C
Humidity: 94%
Barometer: 29.89 inHg , 1012.2 hPa
Summary: Light rain
Clouds: Overcast
Visibility: 2 1/2 miles , 2 km
Cloud details: Mostly cloudy 600 ft
Mostly cloudy 2300 ft
Overcast 6000 ft
2017/03/26 05:15 KC09 260515Z AUTO 09008KT 2 1/2SM -RA BKN006 BKN023 OVC060 12/11 A2989 RMK AO2 T01170112

Metar display script from Saratoga-Weather.org